createdAt,value
2023-04-02T00:00:36.970Z,0.75
2023-04-02T00:03:08.502Z,1.20
2023-04-02T00:05:52.255Z,0.70
2023-04-02T00:08:26.588Z,0.75
2023-04-02T00:10:59.961Z,0.73
2023-04-02T00:13:35.091Z,0.63
2023-04-02T00:16:06.569Z,0.55
2023-04-02T00:18:40.117Z,0.90
2023-04-02T00:21:21.340Z,0.52
2023-04-02T00:23:48.672Z,0.63
2023-04-02T00:26:31.474Z,0.70
2023-04-02T00:29:00.983Z,0.30
2023-04-02T00:31:28.335Z,0.40
2023-04-02T00:33:56.075Z,0.40
2023-04-02T00:36:26.790Z,0.50
2023-04-02T00:38:56.844Z,0.52
2023-04-02T00:41:29.762Z,0.52
2023-04-02T00:44:01.436Z,0.60
2023-04-02T00:46:34.591Z,0.38
2023-04-02T00:49:10.669Z,0.60
2023-04-02T00:51:44.449Z,0.40
2023-04-02T00:54:15.830Z,0.32
2023-04-02T00:56:45.665Z,0.50
2023-04-02T00:59:30.206Z,0.45
2023-04-02T01:02:18.584Z,0.70
2023-04-02T01:05:02.531Z,0.90
2023-04-02T01:07:54.080Z,0.52
2023-04-02T01:10:33.998Z,0.43
2023-04-02T01:13:38.829Z,0.50
2023-04-02T01:16:20.999Z,0.73
2023-04-02T01:18:56.776Z,0.40
2023-04-02T01:21:53.860Z,0.40
2023-04-02T01:24:24.640Z,0.40
2023-04-02T01:27:20.846Z,0.60
2023-04-02T01:29:57.742Z,0.50
2023-04-02T01:32:28.425Z,0.35
2023-04-02T01:34:56.335Z,0.52
2023-04-02T01:37:49.785Z,0.40
2023-04-02T01:40:38.532Z,0.32
2023-04-02T01:43:14.341Z,0.60
2023-04-02T01:45:41.568Z,0.40
2023-04-02T01:48:21.152Z,0.52
2023-04-02T01:50:51.676Z,1.00
2023-04-02T01:53:21.523Z,0.60
2023-04-02T01:55:59.508Z,0.60
2023-04-02T01:58:31.501Z,0.65
2023-04-02T02:01:08.357Z,0.63
2023-04-02T02:03:35.532Z,0.22
2023-04-02T02:06:03.424Z,0.52
2023-04-02T02:08:46.782Z,0.22
2023-04-02T02:11:21.541Z,0.55
2023-04-02T02:13:54.748Z,0.50
2023-04-02T02:16:22.887Z,0.35
2023-04-02T02:18:53.873Z,0.60
2023-04-02T02:21:45.787Z,0.80
2023-04-02T02:24:24.200Z,0.80
2023-04-02T02:29:26.988Z,0.43
2023-04-02T02:31:56.301Z,0.20
2023-04-02T02:34:33.374Z,0.30
2023-04-02T02:37:07.385Z,0.22
2023-04-02T02:39:39.289Z,0.50
2023-04-02T02:42:24.344Z,0.70
2023-04-02T02:44:55.220Z,0.30
2023-04-02T02:47:28.273Z,0.80
2023-04-02T02:49:59.365Z,0.40
2023-04-02T02:52:30.970Z,0.30
2023-04-02T02:55:04.890Z,0.20
2023-04-02T02:58:03.432Z,0.52
2023-04-02T03:00:31.970Z,0.32
2023-04-02T03:02:58.868Z,0.70
2023-04-02T03:05:28.059Z,0.50
2023-04-02T03:07:57.228Z,0.32
2023-04-02T03:10:44.631Z,0.20
2023-04-02T03:13:26.998Z,0.43
2023-04-02T03:16:11.794Z,0.60
2023-04-02T03:18:44.195Z,0.40
2023-04-02T03:21:22.311Z,0.55
2023-04-02T03:24:00.729Z,0.60
2023-04-02T03:29:16.410Z,0.40
2023-04-02T03:32:06.082Z,0.20
2023-04-02T03:34:37.805Z,0.30
2023-04-02T03:39:46.574Z,0.30
2023-04-02T03:42:26.058Z,0.55
2023-04-02T03:44:56.034Z,0.30
2023-04-02T03:47:40.102Z,0.32
2023-04-02T03:50:35.490Z,0.65
2023-04-02T03:53:04.081Z,0.35
2023-04-02T03:55:35.489Z,0.70
2023-04-02T03:58:44.212Z,0.40
2023-04-02T04:01:17.656Z,0.32
2023-04-02T04:03:53.971Z,0.22
2023-04-02T04:06:27.503Z,0.30
2023-04-02T04:08:59.574Z,0.30
2023-04-02T04:11:33.978Z,0.22
2023-04-02T04:14:13.549Z,0.65
2023-04-02T04:16:59.846Z,0.55
2023-04-02T04:20:08.278Z,0.60
2023-04-02T04:22:35.009Z,0.30
2023-04-02T04:25:18.089Z,0.20
2023-04-02T04:27:57.348Z,0.60
2023-04-02T04:30:27.305Z,0.13
2023-04-02T04:33:10.898Z,0.30
2023-04-02T04:38:28.556Z,0.52
2023-04-02T04:40:59.618Z,0.40
2023-04-02T04:43:48.343Z,0.20
2023-04-02T04:46:25.757Z,0.32
2023-04-02T04:49:09.065Z,0.32
2023-04-02T04:51:42.140Z,0.30
2023-04-02T04:54:13.620Z,0.13
2023-04-02T04:56:44.736Z,0.43
2023-04-02T04:59:26.257Z,0.30
2023-04-02T05:02:10.599Z,0.28
2023-04-02T05:04:40.863Z,0.65
2023-04-02T05:07:17.160Z,0.65
2023-04-02T05:09:52.829Z,0.20
2023-04-02T05:12:40.431Z,0.25
2023-04-02T05:15:24.815Z,0.40
2023-04-02T05:18:31.248Z,0.63
2023-04-02T05:21:13.649Z,0.45
2023-04-02T05:24:00.927Z,0.30
2023-04-02T05:26:39.530Z,0.38
2023-04-02T05:29:13.456Z,0.52
2023-04-02T05:31:49.867Z,0.47
2023-04-02T05:34:26.212Z,0.20
2023-04-02T05:36:55.594Z,0.43
2023-04-02T05:39:25.112Z,0.45
2023-04-02T05:42:02.801Z,0.30
2023-04-02T05:44:37.839Z,0.40
2023-04-02T05:47:27.551Z,0.47
2023-04-02T05:50:01.087Z,0.43
2023-04-02T05:52:34.051Z,0.40
2023-04-02T05:55:22.030Z,0.50
2023-04-02T05:58:21.140Z,0.32
2023-04-02T06:01:07.616Z,0.30
2023-04-02T06:03:57.686Z,0.32
2023-04-02T06:06:41.437Z,0.20
2023-04-02T06:09:15.311Z,0.45
2023-04-02T06:11:49.527Z,0.40
2023-04-02T06:14:17.766Z,0.43
2023-04-02T06:16:46.304Z,0.40
2023-04-02T06:19:23.723Z,0.43
2023-04-02T06:21:59.017Z,0.30
2023-04-02T06:24:29.330Z,0.47
2023-04-02T06:27:02.904Z,0.60
2023-04-02T06:29:40.099Z,0.30
2023-04-02T06:32:08.796Z,0.20
2023-04-02T06:34:38.855Z,0.30
2023-04-02T06:37:33.298Z,0.77
2023-04-02T06:40:01.071Z,0.38
2023-04-02T06:42:35.327Z,0.30
2023-04-02T06:45:03.356Z,0.38
2023-04-02T06:47:34.447Z,0.35
2023-04-02T06:50:06.809Z,0.30
2023-04-02T06:52:40.087Z,0.52
2023-04-02T06:55:20.705Z,0.28
2023-04-02T06:57:48.405Z,0.47
2023-04-02T07:00:21.838Z,0.30
2023-04-02T07:02:49.918Z,0.60
2023-04-02T07:05:17.103Z,0.40
2023-04-02T07:07:44.555Z,0.55
2023-04-02T07:10:12.350Z,0.55
2023-04-02T07:12:39.194Z,0.40
2023-04-02T07:15:07.126Z,0.50
2023-04-02T07:17:34.289Z,0.40
2023-04-02T07:20:01.578Z,0.45
2023-04-02T07:22:28.852Z,0.28
2023-04-02T07:24:55.953Z,0.40
2023-04-02T07:27:23.119Z,0.45
2023-04-02T07:29:50.425Z,0.43
2023-04-02T07:32:17.810Z,0.25
2023-04-02T07:34:45.495Z,0.65
2023-04-02T07:37:14.498Z,0.47
2023-04-02T07:39:41.548Z,0.50
2023-04-02T07:42:15.500Z,0.47
2023-04-02T07:44:42.958Z,0.32
2023-04-02T07:47:10.743Z,0.28
2023-04-02T07:49:37.973Z,0.55
2023-04-02T07:52:05.349Z,0.60
2023-04-02T07:54:32.651Z,0.30
2023-04-02T07:56:59.633Z,0.50
2023-04-02T07:59:26.867Z,0.60
2023-04-02T08:01:54.486Z,0.30
2023-04-02T08:04:22.901Z,0.47
2023-04-02T08:06:50.413Z,0.38
2023-04-02T08:09:17.708Z,0.50
2023-04-02T08:11:46.400Z,0.43
2023-04-02T08:14:13.780Z,0.30
2023-04-02T08:16:50.945Z,0.60
2023-04-02T08:19:18.960Z,0.32
2023-04-02T08:21:48.074Z,0.20
2023-04-02T08:24:15.031Z,0.52
2023-04-02T08:26:43.981Z,0.22
2023-04-02T08:29:12.537Z,0.45
2023-04-02T08:31:39.982Z,0.73
2023-04-02T08:34:07.929Z,0.38
2023-04-02T08:36:39.528Z,0.30
2023-04-02T08:39:11.875Z,0.43
2023-04-02T08:41:49.613Z,0.30
2023-04-02T08:44:28.183Z,0.77
2023-04-02T08:47:03.272Z,0.55
2023-04-02T08:49:35.909Z,0.30
2023-04-02T08:52:02.709Z,0.43
2023-04-02T08:54:34.799Z,0.50
2023-04-02T08:57:09.649Z,0.50
2023-04-02T08:59:43.232Z,0.30
2023-04-02T09:02:37.838Z,0.75
2023-04-02T09:05:08.263Z,0.30
2023-04-02T09:07:35.294Z,0.60
2023-04-02T09:10:02.810Z,0.22
2023-04-02T09:12:31.793Z,0.30
2023-04-02T09:15:11.116Z,0.60
2023-04-02T09:17:50.735Z,0.43
2023-04-02T09:20:29.558Z,0.57
2023-04-02T09:22:57.901Z,0.60
2023-04-02T09:25:28.493Z,0.43
2023-04-02T09:27:57.989Z,0.30
2023-04-02T09:30:47.489Z,0.50
2023-04-02T09:33:14.825Z,0.40
2023-04-02T09:35:51.293Z,0.30
2023-04-02T09:38:23.371Z,0.80
2023-04-02T09:40:53.863Z,0.90
2023-04-02T09:43:22.031Z,0.60
2023-04-02T09:46:04.926Z,0.52
2023-04-02T09:48:44.039Z,0.50
2023-04-02T09:51:24.843Z,0.80
2023-04-02T09:54:06.891Z,0.77
2023-04-02T09:56:36.275Z,0.70
2023-04-02T09:59:03.268Z,0.50
2023-04-02T10:01:32.327Z,0.63
2023-04-02T10:04:00.172Z,0.50
2023-04-02T10:06:31.337Z,0.50
2023-04-02T10:08:58.506Z,0.52
2023-04-02T10:11:43.764Z,0.45
2023-04-02T10:14:25.734Z,0.32
2023-04-02T10:17:19.137Z,0.45
2023-04-02T10:20:00.793Z,0.60
2023-04-02T10:22:28.426Z,0.50
2023-04-02T10:24:55.498Z,0.40
2023-04-02T10:27:52.314Z,0.82
2023-04-02T10:30:32.572Z,1.23
2023-04-02T10:32:59.958Z,0.77
2023-04-02T10:35:40.823Z,0.50
2023-04-02T10:38:26.528Z,0.20
2023-04-02T10:41:00.595Z,0.70
2023-04-02T10:43:41.188Z,0.82
2023-04-02T10:46:19.185Z,0.68
2023-04-02T10:48:57.232Z,0.77
2023-04-02T10:51:52.154Z,0.68
2023-04-02T10:54:28.939Z,1.10
2023-04-02T10:57:05.044Z,1.05
2023-04-02T10:59:37.358Z,0.77
2023-04-02T11:02:20.718Z,0.52
2023-04-02T11:04:48.312Z,0.65
2023-04-02T11:07:21.381Z,0.95
2023-04-02T11:09:52.298Z,0.70
2023-04-02T11:12:27.832Z,0.77
2023-04-02T11:14:56.534Z,0.30
2023-04-02T11:17:24.609Z,0.73
2023-04-02T11:19:52.759Z,0.80
2023-04-02T11:22:23.336Z,0.85
2023-04-02T11:24:56.037Z,0.40
2023-04-02T11:27:29.193Z,0.50
2023-04-02T11:30:08.204Z,0.38
2023-04-02T11:32:43.377Z,0.30
2023-04-02T11:35:32.493Z,0.70
2023-04-02T11:38:12.368Z,0.52
2023-04-02T11:40:52.935Z,0.40
2023-04-02T11:43:36.044Z,0.80
2023-04-02T11:46:34.327Z,0.50
2023-04-02T11:49:36.311Z,0.43
2023-04-02T11:52:12.037Z,0.47
2023-04-02T11:54:40.789Z,0.30
2023-04-02T11:57:30.774Z,0.50
2023-04-02T12:00:16.271Z,0.40
2023-04-02T12:03:04.546Z,0.40
2023-04-02T12:05:48.232Z,0.52
2023-04-02T12:08:54.332Z,0.50
2023-04-02T12:14:26.988Z,0.30
2023-04-02T12:16:54.530Z,0.43
2023-04-02T12:19:24.179Z,0.80
2023-04-02T12:21:56.491Z,0.40
2023-04-02T12:24:26.809Z,0.65
2023-04-02T12:27:14.991Z,0.50
2023-04-02T12:29:42.994Z,0.35
2023-04-02T12:32:29.572Z,0.70
2023-04-02T12:34:58.924Z,0.85
2023-04-02T12:37:30.632Z,0.47
2023-04-02T12:40:15.698Z,0.68
2023-04-02T12:42:42.567Z,0.70
2023-04-02T12:45:22.599Z,0.70
2023-04-02T12:47:50.618Z,0.50
2023-04-02T12:50:18.066Z,0.57
2023-04-02T12:52:47.580Z,0.77
2023-04-02T12:55:24.576Z,1.02
2023-04-02T12:57:59.496Z,0.98
2023-04-02T13:00:29.850Z,1.30
2023-04-02T13:03:17.532Z,0.50
2023-04-02T13:05:52.355Z,1.05
2023-04-02T13:08:28.029Z,0.80
2023-04-02T13:11:06.230Z,1.27
2023-04-02T13:13:39.481Z,0.73
2023-04-02T13:16:20.766Z,0.50
2023-04-02T13:18:49.363Z,0.82
2023-04-02T13:21:16.885Z,0.50
2023-04-02T13:23:46.147Z,0.90
2023-04-02T13:26:31.580Z,0.70
2023-04-02T13:29:00.455Z,1.02
2023-04-02T13:31:32.588Z,0.95
2023-04-02T13:33:59.984Z,1.02
2023-04-02T13:36:29.271Z,0.63
2023-04-02T13:38:57.417Z,0.40
2023-04-02T13:41:27.420Z,0.50
2023-04-02T13:43:57.254Z,0.52
2023-04-02T13:46:27.698Z,0.40
2023-04-02T13:48:56.697Z,0.70
2023-04-02T13:51:31.823Z,0.60
2023-04-02T13:53:59.557Z,0.38
2023-04-02T13:56:27.153Z,0.60
2023-04-02T13:58:54.666Z,0.63
2023-04-02T14:01:23.692Z,0.52
2023-04-02T14:03:53.000Z,0.75
2023-04-02T14:06:45.804Z,0.70
2023-04-02T14:09:37.566Z,1.00
2023-04-02T14:12:23.807Z,0.93
2023-04-02T14:15:03.335Z,0.88
2023-04-02T14:17:51.889Z,0.80
2023-04-02T14:20:30.587Z,0.50
2023-04-02T14:23:06.482Z,0.52
2023-04-02T14:25:46.282Z,0.60
2023-04-02T14:28:47.409Z,0.85
2023-04-02T14:31:24.932Z,0.60
2023-04-02T14:33:56.806Z,0.93
2023-04-02T14:36:26.838Z,0.93
2023-04-02T14:39:18.152Z,0.50
2023-04-02T14:41:57.040Z,0.40
2023-04-02T14:44:27.761Z,0.40
2023-04-02T14:47:02.108Z,0.60
2023-04-02T14:49:31.462Z,0.50
2023-04-02T14:52:15.410Z,0.63
2023-04-02T14:55:07.296Z,0.70
2023-04-02T14:57:48.872Z,0.60
2023-04-02T15:00:40.248Z,0.40
2023-04-02T15:03:25.852Z,0.88
2023-04-02T15:06:06.106Z,0.57
2023-04-02T15:08:50.106Z,0.63
2023-04-02T15:11:26.013Z,0.77
2023-04-02T15:14:17.892Z,0.63
2023-04-02T15:16:45.071Z,0.63
2023-04-02T15:19:17.971Z,0.88
2023-04-02T15:22:15.400Z,0.50
2023-04-02T15:24:56.951Z,0.65
2023-04-02T15:27:42.628Z,0.63
2023-04-02T15:30:29.382Z,0.68
2023-04-02T15:33:19.958Z,0.50
2023-04-02T15:36:01.539Z,0.60
2023-04-02T15:38:37.976Z,0.90
2023-04-02T15:41:26.355Z,0.73
2023-04-02T15:44:16.144Z,0.50
2023-04-02T15:47:07.925Z,0.50
2023-04-02T15:49:48.800Z,0.73
2023-04-02T15:52:19.889Z,0.43
2023-04-02T15:54:59.883Z,0.57
2023-04-02T15:57:46.159Z,0.73
2023-04-02T16:00:12.944Z,0.98
2023-04-02T16:02:47.941Z,0.70
2023-04-02T16:05:38.730Z,0.80
2023-04-02T16:08:22.671Z,0.55
2023-04-02T16:10:49.411Z,0.82
2023-04-02T16:13:30.243Z,0.40
2023-04-02T16:16:08.172Z,0.70
2023-04-02T16:19:04.782Z,0.35
2023-04-02T16:21:34.871Z,0.55
2023-04-02T16:24:01.773Z,1.17
2023-04-02T16:26:40.495Z,0.40
2023-04-02T16:29:19.730Z,0.60
2023-04-02T16:32:06.630Z,0.63
2023-04-02T16:34:57.665Z,0.57
2023-04-02T16:37:38.255Z,0.52
2023-04-02T16:40:39.159Z,0.43
2023-04-02T16:43:18.386Z,0.57
2023-04-02T16:46:03.657Z,0.50
2023-04-02T16:48:57.139Z,0.73
2023-04-02T16:51:47.232Z,0.75
2023-04-02T16:54:51.152Z,0.82
2023-04-02T16:57:24.213Z,0.80
2023-04-02T17:00:15.519Z,1.08
2023-04-02T17:03:13.597Z,0.60
2023-04-02T17:05:49.648Z,0.60
2023-04-02T17:08:25.491Z,0.60
2023-04-02T17:11:05.646Z,0.70
2023-04-02T17:13:41.686Z,0.63
2023-04-02T17:16:18.713Z,0.50
2023-04-02T17:18:49.111Z,0.55
2023-04-02T17:21:22.819Z,0.63
2023-04-02T17:23:57.176Z,0.75
2023-04-02T17:26:34.719Z,0.80
2023-04-02T17:29:08.141Z,0.90
2023-04-02T17:31:37.557Z,0.63
2023-04-02T17:34:13.825Z,0.85
2023-04-02T17:36:53.620Z,1.00
2023-04-02T17:39:29.258Z,1.88
2023-04-02T17:42:07.559Z,1.17
2023-04-02T17:44:49.985Z,0.60
2023-04-02T17:47:22.129Z,0.93
2023-04-02T17:50:29.417Z,0.70
2023-04-02T17:53:30.310Z,0.60
2023-04-02T17:56:03.647Z,1.30
2023-04-02T17:58:40.751Z,1.10
2023-04-02T18:01:28.492Z,0.75
2023-04-02T18:04:12.462Z,0.90
2023-04-02T18:06:39.190Z,0.77
2023-04-02T18:09:39.441Z,0.80
2023-04-02T18:12:24.709Z,1.00
2023-04-02T18:15:32.574Z,1.08
2023-04-02T18:18:05.267Z,0.82
2023-04-02T18:20:39.516Z,0.88
2023-04-02T18:23:24.641Z,0.70
2023-04-02T18:26:15.025Z,0.82
2023-04-02T18:28:45.036Z,0.77
2023-04-02T18:31:42.740Z,0.70
2023-04-02T18:34:52.076Z,0.73
2023-04-02T18:37:34.557Z,0.63
2023-04-02T18:40:13.503Z,1.17
2023-04-02T18:43:04.503Z,0.73
2023-04-02T18:45:41.386Z,0.70
2023-04-02T18:48:20.286Z,1.00
2023-04-02T18:50:49.008Z,1.20
2023-04-02T18:53:24.051Z,1.00
2023-04-02T18:55:53.949Z,0.95
2023-04-02T18:58:27.159Z,0.90
2023-04-02T19:00:54.332Z,0.70
2023-04-02T19:03:52.543Z,0.80
2023-04-02T19:06:28.840Z,0.70
2023-04-02T19:09:15.199Z,0.90
2023-04-02T19:11:42.127Z,0.90
2023-04-02T19:14:19.793Z,0.98
2023-04-02T19:17:04.257Z,0.70
2023-04-02T19:20:03.239Z,0.73
2023-04-02T19:22:39.868Z,1.15
2023-04-02T19:25:28.358Z,1.13
2023-04-02T19:28:13.574Z,0.80
2023-04-02T19:31:09.507Z,1.42
2023-04-02T19:33:52.468Z,0.80
2023-04-02T19:36:30.834Z,1.17
2023-04-02T19:41:51.499Z,0.70
2023-04-02T19:44:19.065Z,0.82
2023-04-02T19:46:46.669Z,0.85
2023-04-02T19:49:34.637Z,0.93
2023-04-02T19:52:01.532Z,1.20
2023-04-02T19:54:28.376Z,1.13
2023-04-02T19:56:55.563Z,0.73
2023-04-02T19:59:22.480Z,1.42
2023-04-02T20:01:49.270Z,1.45
2023-04-02T20:04:16.371Z,1.25
2023-04-02T20:06:43.291Z,1.00
2023-04-02T20:09:10.117Z,0.75
2023-04-02T20:11:38.298Z,1.15
2023-04-02T20:14:05.830Z,0.77
2023-04-02T20:16:33.884Z,1.20
2023-04-02T20:19:00.694Z,1.50
2023-04-02T20:21:27.851Z,0.80
2023-04-02T20:23:55.557Z,0.98
2023-04-02T20:26:22.801Z,1.20
2023-04-02T20:28:49.671Z,1.08
2023-04-02T20:31:18.224Z,0.90
2023-04-02T20:33:45.562Z,0.93
2023-04-02T20:36:17.297Z,0.85
2023-04-02T20:38:45.449Z,1.02
2023-04-02T20:41:12.389Z,0.95
2023-04-02T20:43:40.659Z,0.98
2023-04-02T20:46:10.116Z,1.35
2023-04-02T20:48:37.942Z,0.70
2023-04-02T20:51:06.460Z,0.98
2023-04-02T20:53:34.940Z,1.17
2023-04-02T20:56:05.547Z,1.10
2023-04-02T20:58:33.331Z,0.93
2023-04-02T21:01:27.578Z,1.00
2023-04-02T21:03:59.448Z,2.28
2023-04-02T21:06:29.641Z,0.70
2023-04-02T21:08:56.444Z,1.02
2023-04-02T21:11:24.113Z,1.05
2023-04-02T21:13:51.041Z,0.90
2023-04-02T21:16:21.670Z,1.33
2023-04-02T21:18:51.305Z,1.30
2023-04-02T21:21:18.973Z,0.90
2023-04-02T21:23:46.464Z,0.77
2023-04-02T21:26:15.732Z,1.00
2023-04-02T21:28:44.278Z,1.35
2023-04-02T21:31:17.621Z,1.13
2023-04-02T21:33:50.857Z,1.25
2023-04-02T21:36:21.640Z,0.82
2023-04-02T21:38:56.759Z,0.88
2023-04-02T21:41:26.540Z,1.00
2023-04-02T21:43:54.233Z,0.82
2023-04-02T21:46:24.804Z,1.33
2023-04-02T21:48:53.268Z,1.13
2023-04-02T21:51:26.343Z,1.30
2023-04-02T21:53:56.032Z,1.55
2023-04-02T21:56:31.501Z,1.13
2023-04-02T21:58:59.014Z,1.27
2023-04-02T22:01:28.089Z,1.17
2023-04-02T22:03:56.545Z,1.13
2023-04-02T22:06:26.376Z,1.40
2023-04-02T22:08:56.254Z,1.13
2023-04-02T22:11:26.560Z,1.17
2023-04-02T22:13:54.035Z,1.05
2023-04-02T22:16:26.574Z,0.90
2023-04-02T22:18:56.772Z,0.77
2023-04-02T22:21:24.104Z,1.20
2023-04-02T22:23:51.168Z,0.75
2023-04-02T22:26:19.864Z,0.90
2023-04-02T22:28:47.154Z,0.80
2023-04-02T22:31:19.818Z,1.05
2023-04-02T22:33:47.331Z,1.02
2023-04-02T22:36:15.098Z,1.20
2023-04-02T22:38:42.424Z,0.93
2023-04-02T22:41:18.168Z,1.20
2023-04-02T22:43:45.893Z,0.98
2023-04-02T22:46:14.736Z,0.93
2023-04-02T22:48:42.458Z,1.00
2023-04-02T22:51:11.499Z,0.82
2023-04-02T22:53:39.208Z,1.15
2023-04-02T22:56:14.850Z,0.93
2023-04-02T22:58:42.857Z,0.90
2023-04-02T23:01:17.673Z,0.93
2023-04-02T23:03:44.559Z,1.00
2023-04-02T23:06:17.290Z,0.70
2023-04-02T23:08:45.064Z,1.05
2023-04-02T23:11:21.950Z,1.02
2023-04-02T23:13:50.449Z,1.17
2023-04-02T23:16:18.454Z,1.08
2023-04-02T23:18:49.322Z,0.82
2023-04-02T23:21:17.840Z,1.00
2023-04-02T23:23:45.954Z,1.20
2023-04-02T23:26:18.917Z,1.10
2023-04-02T23:28:45.993Z,0.70
2023-04-02T23:31:16.685Z,0.88
2023-04-02T23:33:44.487Z,1.17
2023-04-02T23:36:34.260Z,1.90
2023-04-02T23:39:09.545Z,1.70
2023-04-02T23:41:38.333Z,1.73
2023-04-02T23:44:05.764Z,1.08
2023-04-02T23:46:36.008Z,1.00
2023-04-02T23:49:03.710Z,1.52
2023-04-02T23:51:32.194Z,1.33
2023-04-02T23:53:59.012Z,1.50
2023-04-02T23:56:26.414Z,1.50
2023-04-02T23:58:53.298Z,2.20
